createdAt,value
2022-12-03T00:02:21.777Z,1.24
2022-12-03T00:04:48.805Z,1.22
2022-12-03T00:07:15.527Z,1.27
2022-12-03T00:09:42.348Z,1.34
2022-12-03T00:12:09.210Z,1.35
2022-12-03T00:14:39.969Z,1.35
2022-12-03T00:17:09.901Z,1.35
2022-12-03T00:19:36.696Z,1.38
2022-12-03T00:22:03.600Z,1.42
2022-12-03T00:24:31.056Z,1.44
2022-12-03T00:26:57.905Z,1.45
2022-12-03T00:29:24.635Z,1.42
2022-12-03T00:31:52.204Z,1.41
2022-12-03T00:34:18.843Z,1.39
2022-12-03T00:36:45.526Z,1.41
2022-12-03T00:39:12.269Z,1.47
2022-12-03T00:41:38.986Z,1.49
2022-12-03T00:44:05.874Z,1.51
2022-12-03T00:46:32.715Z,1.58
2022-12-03T00:48:59.659Z,1.68
2022-12-03T00:51:26.404Z,1.75
2022-12-03T00:53:53.094Z,1.79
2022-12-03T00:56:19.828Z,1.82
2022-12-03T00:58:46.805Z,1.81
2022-12-03T01:01:13.652Z,1.79
2022-12-03T01:03:40.486Z,1.76
2022-12-03T01:06:07.392Z,1.78
2022-12-03T01:08:34.090Z,1.77
2022-12-03T01:11:00.886Z,1.73
2022-12-03T01:13:27.760Z,1.71
2022-12-03T01:15:54.511Z,1.69
2022-12-03T01:18:21.304Z,1.69
2022-12-03T01:20:48.203Z,1.71
2022-12-03T01:23:14.901Z,1.75
2022-12-03T01:25:41.746Z,1.76
2022-12-03T01:28:08.614Z,1.74
2022-12-03T01:30:55.471Z,1.67
2022-12-03T01:33:22.376Z,1.61
2022-12-03T01:35:49.011Z,1.58
2022-12-03T01:38:15.748Z,1.61
2022-12-03T01:40:42.511Z,1.63
2022-12-03T01:43:09.229Z,1.66
2022-12-03T01:45:36.049Z,1.67
2022-12-03T01:48:02.773Z,1.66
2022-12-03T01:50:32.609Z,1.69
2022-12-03T01:53:02.019Z,1.69
2022-12-03T01:55:29.282Z,1.70
2022-12-03T01:58:00.484Z,1.68
2022-12-03T02:00:28.246Z,1.67
2022-12-03T02:03:16.949Z,1.66
2022-12-03T02:05:43.756Z,1.60
2022-12-03T02:08:33.178Z,1.54
2022-12-03T02:11:06.330Z,1.50
2022-12-03T02:13:33.329Z,1.48
2022-12-03T02:16:00.218Z,1.45
2022-12-03T02:18:27.018Z,1.43
2022-12-03T02:21:25.956Z,1.41
2022-12-03T02:24:11.208Z,1.38
2022-12-03T02:26:38.185Z,1.33
2022-12-03T02:29:04.984Z,1.27
2022-12-03T02:31:32.508Z,1.19
2022-12-03T02:33:59.397Z,1.16
2022-12-03T02:36:26.596Z,1.16
2022-12-03T02:38:53.320Z,1.15
2022-12-03T02:41:39.358Z,1.11
2022-12-03T02:44:07.630Z,1.11
2022-12-03T02:46:35.351Z,1.11
2022-12-03T02:49:05.005Z,1.15
2022-12-03T02:51:33.117Z,1.19
2022-12-03T02:54:00.496Z,1.21
2022-12-03T02:56:30.554Z,1.22
2022-12-03T02:59:01.563Z,1.22
2022-12-03T03:01:28.702Z,1.24
2022-12-03T03:03:56.481Z,1.24
2022-12-03T03:06:23.757Z,1.19
2022-12-03T03:08:50.792Z,1.12
2022-12-03T03:11:18.027Z,1.13
2022-12-03T03:13:44.910Z,1.19
2022-12-03T03:16:12.019Z,1.21
2022-12-03T03:18:39.300Z,1.20
2022-12-03T03:21:07.224Z,1.18
2022-12-03T03:23:34.092Z,1.19
2022-12-03T03:26:10.451Z,1.19
2022-12-03T03:28:41.024Z,1.18
2022-12-03T03:31:10.798Z,1.18
2022-12-03T03:33:42.943Z,1.16
2022-12-03T03:36:10.537Z,1.09
2022-12-03T03:38:38.309Z,1.01
2022-12-03T03:41:07.601Z,0.97
2022-12-03T03:43:36.626Z,0.97
2022-12-03T03:46:05.354Z,0.99
2022-12-03T03:48:34.221Z,1.04
2022-12-03T03:51:08.757Z,1.09
2022-12-03T03:53:41.009Z,1.11
2022-12-03T03:56:09.009Z,1.11
2022-12-03T03:58:36.510Z,1.12
2022-12-03T04:01:03.421Z,1.08
2022-12-03T04:03:30.404Z,1.02
2022-12-03T04:05:57.473Z,0.97
2022-12-03T04:08:24.252Z,0.94
2022-12-03T04:11:09.848Z,0.91
2022-12-03T04:13:36.581Z,0.89
2022-12-03T04:16:04.132Z,0.86
2022-12-03T04:18:43.220Z,0.81
2022-12-03T04:21:29.793Z,0.72
2022-12-03T04:23:56.517Z,0.65
2022-12-03T04:26:42.712Z,0.61
2022-12-03T04:29:09.939Z,0.54
2022-12-03T04:31:55.612Z,0.52
2022-12-03T04:34:41.580Z,0.50
2022-12-03T04:37:08.935Z,0.51
2022-12-03T04:39:35.968Z,0.52
2022-12-03T04:42:03.941Z,0.47
2022-12-03T04:44:37.062Z,0.39
2022-12-03T04:47:18.304Z,0.37
2022-12-03T04:49:47.791Z,0.32
2022-12-03T04:52:17.035Z,0.28
2022-12-03T04:54:44.151Z,0.27
2022-12-03T04:57:11.645Z,0.20
2022-12-03T04:59:38.745Z,0.13
2022-12-03T05:02:06.646Z,0.06
2022-12-03T05:04:34.064Z,0.04
2022-12-03T05:07:01.442Z,0.03
2022-12-03T05:09:28.176Z,0.02
2022-12-03T05:11:54.916Z,0.02
2022-12-03T05:14:21.616Z,0.04
2022-12-03T05:16:48.679Z,0.03
2022-12-03T05:19:15.507Z,0.04
2022-12-03T05:21:42.213Z,-0.03
2022-12-03T05:24:08.991Z,-0.10
2022-12-03T05:26:35.862Z,-0.12
2022-12-03T05:29:02.672Z,-0.09
2022-12-03T05:31:29.469Z,-0.06
2022-12-03T05:33:56.186Z,-0.07
2022-12-03T05:36:24.730Z,-0.07
2022-12-03T05:38:51.876Z,-0.11
2022-12-03T05:41:37.079Z,-0.11
2022-12-03T05:44:03.866Z,-0.13
2022-12-03T05:46:31.957Z,-0.15
2022-12-03T05:48:58.694Z,-0.20
2022-12-03T05:51:25.460Z,-0.26
2022-12-03T05:53:52.373Z,-0.30
2022-12-03T05:56:19.074Z,-0.38
2022-12-03T05:58:45.825Z,-0.42
2022-12-03T06:01:12.554Z,-0.38
2022-12-03T06:03:39.339Z,-0.34
2022-12-03T06:06:06.237Z,-0.34
2022-12-03T06:08:33.013Z,-0.30
2022-12-03T06:10:59.805Z,-0.23
2022-12-03T06:13:26.570Z,-0.20
2022-12-03T06:15:53.276Z,-0.18
2022-12-03T06:18:20.078Z,-0.15
2022-12-03T06:20:46.828Z,-0.13
2022-12-03T06:23:13.561Z,-0.06
2022-12-03T06:25:40.289Z,0.02
2022-12-03T06:28:07.027Z,0.06
2022-12-03T06:30:35.288Z,0.11
2022-12-03T06:33:02.644Z,0.17
2022-12-03T06:35:29.514Z,0.27
2022-12-03T06:37:56.401Z,0.36
2022-12-03T06:40:24.217Z,0.42
2022-12-03T06:42:51.307Z,0.46
2022-12-03T06:45:18.141Z,0.53
2022-12-03T06:47:44.970Z,0.65
2022-12-03T06:50:13.104Z,0.80
2022-12-03T06:52:39.894Z,0.94
2022-12-03T06:55:07.413Z,1.12
2022-12-03T06:57:34.448Z,1.22
2022-12-03T07:00:01.718Z,1.25
2022-12-03T07:02:28.529Z,1.34
2022-12-03T07:04:56.144Z,1.40
2022-12-03T07:07:22.999Z,1.41
2022-12-03T07:09:49.662Z,1.41
2022-12-03T07:12:16.413Z,1.50
2022-12-03T07:14:43.138Z,1.59
2022-12-03T07:17:09.854Z,1.72
2022-12-03T07:19:36.574Z,1.89
2022-12-03T07:22:03.445Z,2.20
2022-12-03T07:24:30.262Z,2.52
2022-12-03T07:26:56.992Z,2.71
2022-12-03T07:29:23.933Z,2.98
2022-12-03T07:31:50.777Z,3.23
2022-12-03T07:34:17.547Z,3.52
2022-12-03T07:36:44.335Z,3.76
2022-12-03T07:39:11.040Z,4.17
2022-12-03T07:41:37.745Z,4.48
2022-12-03T07:44:07.794Z,4.59
2022-12-03T07:46:39.909Z,4.94
2022-12-03T07:49:06.681Z,5.15
2022-12-03T07:51:33.423Z,5.45
2022-12-03T07:54:00.287Z,5.62
2022-12-03T07:56:27.231Z,5.90
2022-12-03T07:58:53.984Z,6.42
2022-12-03T08:01:20.778Z,6.96
2022-12-03T08:03:47.614Z,7.27
2022-12-03T08:06:14.352Z,7.30
2022-12-03T08:08:42.742Z,7.43
2022-12-03T08:11:15.918Z,7.45
2022-12-03T08:13:42.893Z,7.52
2022-12-03T08:16:18.642Z,7.93
2022-12-03T08:18:46.652Z,8.22
2022-12-03T08:21:16.132Z,8.17
2022-12-03T08:23:43.257Z,8.50
2022-12-03T08:26:21.109Z,8.63
2022-12-03T08:28:47.956Z,8.92
2022-12-03T08:31:19.386Z,9.54
2022-12-03T08:33:48.922Z,10.11
2022-12-03T08:36:23.078Z,10.46
2022-12-03T08:39:13.600Z,11.32
2022-12-03T08:41:59.165Z,11.82
2022-12-03T08:44:40.316Z,12.09
2022-12-03T08:47:13.593Z,13.43
2022-12-03T08:49:40.643Z,14.50
2022-12-03T08:52:19.949Z,15.46
2022-12-03T08:54:53.182Z,16.05
2022-12-03T08:57:27.783Z,16.66
2022-12-03T09:00:19.265Z,16.82
2022-12-03T09:02:50.208Z,16.86
2022-12-03T09:05:21.291Z,17.06
2022-12-03T09:07:48.339Z,17.24
2022-12-03T09:10:15.222Z,17.06
2022-12-03T09:12:41.945Z,17.33
2022-12-03T09:15:09.125Z,17.46
2022-12-03T09:17:36.935Z,17.85
2022-12-03T09:20:05.082Z,18.36
2022-12-03T09:22:32.350Z,18.31
2022-12-03T09:24:59.441Z,18.74
2022-12-03T09:27:27.057Z,19.28
2022-12-03T09:29:54.016Z,19.82
2022-12-03T09:32:22.501Z,20.08
2022-12-03T09:34:50.376Z,20.17
2022-12-03T09:37:18.481Z,19.98
2022-12-03T09:39:45.556Z,20.81
2022-12-03T09:42:15.495Z,20.92
2022-12-03T09:44:43.319Z,21.29
2022-12-03T09:47:13.408Z,21.42
2022-12-03T09:49:41.116Z,21.60
2022-12-03T09:52:13.327Z,21.45
2022-12-03T09:54:52.134Z,21.33
2022-12-03T09:57:19.424Z,20.71
2022-12-03T09:59:46.136Z,20.99
2022-12-03T10:02:31.018Z,21.13
2022-12-03T10:04:58.226Z,21.46
2022-12-03T10:07:25.951Z,21.58
2022-12-03T10:09:53.296Z,21.79
2022-12-03T10:12:24.230Z,21.60
2022-12-03T10:14:52.914Z,21.58
2022-12-03T10:17:19.840Z,20.79
2022-12-03T10:19:46.712Z,21.01
2022-12-03T10:22:13.477Z,21.16
2022-12-03T10:24:40.417Z,21.38
2022-12-03T10:27:28.662Z,21.87
2022-12-03T10:30:00.801Z,22.58
2022-12-03T10:32:44.280Z,22.90
2022-12-03T10:35:23.865Z,23.42
2022-12-03T10:38:01.096Z,23.44
2022-12-03T10:40:31.476Z,23.61
2022-12-03T10:43:18.719Z,23.88
2022-12-03T10:46:09.541Z,23.70
2022-12-03T10:48:36.446Z,23.79
2022-12-03T10:51:06.365Z,24.16
2022-12-03T10:53:35.869Z,24.30
2022-12-03T10:56:06.209Z,24.35
2022-12-03T10:58:35.527Z,24.29
2022-12-03T11:01:13.122Z,24.12
2022-12-03T11:03:40.254Z,23.80
2022-12-03T11:06:14.494Z,23.99
2022-12-03T11:08:42.361Z,24.13
2022-12-03T11:11:29.376Z,23.59
2022-12-03T11:13:58.501Z,23.73
2022-12-03T11:16:45.917Z,23.68
2022-12-03T11:19:12.525Z,23.70
2022-12-03T11:22:04.248Z,23.83
2022-12-03T11:24:39.136Z,23.57
2022-12-03T11:27:17.347Z,23.37
2022-12-03T11:29:58.038Z,23.01
2022-12-03T11:32:58.776Z,23.05
2022-12-03T11:35:36.229Z,22.60
2022-12-03T11:38:37.384Z,22.69
2022-12-03T11:41:11.760Z,22.09
2022-12-03T11:43:56.828Z,21.70
2022-12-03T11:46:35.958Z,21.05
2022-12-03T11:49:19.798Z,20.13
2022-12-03T11:51:46.711Z,19.23
2022-12-03T11:54:17.067Z,18.19
2022-12-03T11:56:48.384Z,17.46
2022-12-03T11:59:16.911Z,16.64
2022-12-03T12:01:44.708Z,15.93
2022-12-03T12:04:32.514Z,15.24
2022-12-03T12:07:00.616Z,14.36
2022-12-03T12:09:54.203Z,13.74
2022-12-03T12:12:30.821Z,13.05
2022-12-03T12:14:59.011Z,12.65
2022-12-03T12:17:36.144Z,12.33
2022-12-03T12:20:25.010Z,12.00
2022-12-03T12:22:53.733Z,11.64
2022-12-03T12:25:29.382Z,11.34
2022-12-03T12:27:57.001Z,11.08
2022-12-03T12:30:23.823Z,10.70
2022-12-03T12:32:56.688Z,10.38
2022-12-03T12:35:26.114Z,10.07
2022-12-03T12:38:10.366Z,9.88
2022-12-03T12:40:39.549Z,9.71
2022-12-03T12:43:26.085Z,9.62
2022-12-03T12:46:18.747Z,9.44
2022-12-03T12:48:47.762Z,9.25
2022-12-03T12:51:18.258Z,9.16
2022-12-03T12:53:45.154Z,8.99
2022-12-03T12:56:30.467Z,8.84
2022-12-03T12:59:08.932Z,8.69
2022-12-03T13:01:35.746Z,8.59
2022-12-03T13:04:11.848Z,8.45
2022-12-03T13:06:39.625Z,8.36
2022-12-03T13:09:17.241Z,8.31
2022-12-03T13:11:58.660Z,7.97
2022-12-03T13:14:36.413Z,7.82
2022-12-03T13:17:25.391Z,7.68
2022-12-03T13:20:01.932Z,7.54
2022-12-03T13:22:32.117Z,7.48
2022-12-03T13:25:37.945Z,7.39
2022-12-03T13:28:07.505Z,7.22
2022-12-03T13:30:34.450Z,7.19
2022-12-03T13:33:12.967Z,7.12
2022-12-03T13:35:42.194Z,7.02
2022-12-03T13:38:15.254Z,6.98
2022-12-03T13:40:42.170Z,6.85
2022-12-03T13:43:13.823Z,6.74
2022-12-03T13:45:46.478Z,6.63
2022-12-03T13:48:20.860Z,6.46
2022-12-03T13:50:47.510Z,6.33
2022-12-03T13:53:28.703Z,6.20
2022-12-03T13:56:30.410Z,6.15
2022-12-03T13:58:59.681Z,6.12
2022-12-03T14:01:28.008Z,6.16
2022-12-03T14:03:54.957Z,6.09
2022-12-03T14:06:21.977Z,6.10
2022-12-03T14:08:48.763Z,6.04
2022-12-03T14:11:34.673Z,6.03
2022-12-03T14:14:01.717Z,5.85
2022-12-03T14:16:28.693Z,5.78
2022-12-03T14:18:55.444Z,5.69
2022-12-03T14:21:22.348Z,5.70
2022-12-03T14:23:49.138Z,5.58
2022-12-03T14:26:15.856Z,5.50
2022-12-03T14:28:43.014Z,5.48
2022-12-03T14:31:09.734Z,5.37
2022-12-03T14:33:37.667Z,5.26
2022-12-03T14:36:04.740Z,5.20
2022-12-03T14:38:31.630Z,5.08
2022-12-03T14:40:58.410Z,5.00
2022-12-03T14:43:25.145Z,4.97
2022-12-03T14:45:52.042Z,4.94
2022-12-03T14:48:21.245Z,4.97
2022-12-03T14:50:48.000Z,4.88
2022-12-03T14:53:14.705Z,4.80
2022-12-03T14:55:41.486Z,4.75
2022-12-03T14:58:08.264Z,4.65
2022-12-03T15:00:35.059Z,4.55
2022-12-03T15:03:01.763Z,4.44
2022-12-03T15:05:29.281Z,4.36
2022-12-03T15:07:56.274Z,4.27
2022-12-03T15:10:23.228Z,4.17
2022-12-03T15:12:49.984Z,4.08
2022-12-03T15:15:16.816Z,3.97
2022-12-03T15:17:45.004Z,3.91
2022-12-03T15:20:12.282Z,3.79
2022-12-03T15:22:39.019Z,3.60
2022-12-03T15:25:07.116Z,3.61
2022-12-03T15:27:34.047Z,3.50
2022-12-03T15:30:00.913Z,3.38
2022-12-03T15:32:27.897Z,3.26
2022-12-03T15:34:54.837Z,3.11
2022-12-03T15:37:21.857Z,2.98
2022-12-03T15:39:52.787Z,2.85
2022-12-03T15:42:19.762Z,2.77
2022-12-03T15:44:46.450Z,2.75
2022-12-03T15:47:13.248Z,2.76
2022-12-03T15:49:40.117Z,2.79
2022-12-03T15:52:07.364Z,2.78
2022-12-03T15:54:34.088Z,2.69
2022-12-03T15:57:00.818Z,2.66
2022-12-03T15:59:27.560Z,2.64
2022-12-03T16:01:54.631Z,2.60
2022-12-03T16:04:21.675Z,2.54
2022-12-03T16:06:48.506Z,2.52
2022-12-03T16:09:15.180Z,2.56
2022-12-03T16:11:41.973Z,2.58
2022-12-03T16:14:08.841Z,2.58
2022-12-03T16:16:35.699Z,2.59
2022-12-03T16:19:02.628Z,2.54
2022-12-03T16:21:29.463Z,2.51
2022-12-03T16:23:56.248Z,2.50
2022-12-03T16:26:23.381Z,2.51
2022-12-03T16:28:50.167Z,2.48
2022-12-03T16:31:18.513Z,2.45
2022-12-03T16:33:45.513Z,2.42
2022-12-03T16:36:12.226Z,2.43
2022-12-03T16:38:39.102Z,2.40
2022-12-03T16:41:05.856Z,2.43
2022-12-03T16:43:38.129Z,2.57
2022-12-03T16:46:18.103Z,2.71
2022-12-03T16:48:46.474Z,2.78
2022-12-03T16:51:13.255Z,2.81
2022-12-03T16:53:40.042Z,2.81
2022-12-03T16:56:06.880Z,2.74
2022-12-03T16:58:33.643Z,2.63
2022-12-03T17:01:01.249Z,2.58
2022-12-03T17:03:33.667Z,2.57
2022-12-03T17:06:01.729Z,2.53
2022-12-03T17:08:29.220Z,2.52
2022-12-03T17:10:56.129Z,2.53
2022-12-03T17:13:22.947Z,2.52
2022-12-03T17:15:50.152Z,2.50
2022-12-03T17:18:16.895Z,2.53
2022-12-03T17:20:43.820Z,2.62
2022-12-03T17:23:11.301Z,2.67
2022-12-03T17:25:38.095Z,2.69
2022-12-03T17:28:04.983Z,2.73
2022-12-03T17:30:31.776Z,2.72
2022-12-03T17:32:58.793Z,2.65
2022-12-03T17:35:26.288Z,2.55
2022-12-03T17:37:52.972Z,2.42
2022-12-03T17:40:19.924Z,2.38
2022-12-03T17:42:46.666Z,2.23
2022-12-03T17:45:13.448Z,2.16
2022-12-03T17:47:40.557Z,2.10
2022-12-03T17:50:08.245Z,2.08
2022-12-03T17:52:35.054Z,2.11
2022-12-03T17:55:11.855Z,2.17
2022-12-03T17:57:41.306Z,2.22
2022-12-03T18:00:09.923Z,2.20
2022-12-03T18:02:40.609Z,2.22
2022-12-03T18:05:07.819Z,2.21
2022-12-03T18:07:34.720Z,2.21
2022-12-03T18:10:01.624Z,2.21
2022-12-03T18:12:28.697Z,2.05
2022-12-03T18:14:55.421Z,2.00
2022-12-03T18:17:23.652Z,1.96
2022-12-03T18:19:50.461Z,1.97
2022-12-03T18:22:17.640Z,1.92
2022-12-03T18:24:46.270Z,1.84
2022-12-03T18:27:15.105Z,1.85
2022-12-03T18:29:41.911Z,1.87
2022-12-03T18:32:27.121Z,1.91
2022-12-03T18:34:54.771Z,2.04
2022-12-03T18:37:24.349Z,2.04
2022-12-03T18:39:51.165Z,2.00
2022-12-03T18:42:20.599Z,2.06
2022-12-03T18:44:50.002Z,2.11
2022-12-03T18:47:19.737Z,2.17
2022-12-03T18:49:46.943Z,2.23
2022-12-03T18:52:19.666Z,2.25
2022-12-03T18:54:47.357Z,2.28
2022-12-03T18:57:15.062Z,2.31
2022-12-03T18:59:42.080Z,2.31
2022-12-03T19:03:02.040Z,2.16
2022-12-03T19:05:10.272Z,1.99
2022-12-03T19:07:37.279Z,1.94
2022-12-03T19:10:04.815Z,1.90
2022-12-03T19:12:32.153Z,1.86
2022-12-03T19:14:58.848Z,1.88
2022-12-03T19:17:26.600Z,1.92
2022-12-03T19:19:53.874Z,1.93
2022-12-03T19:22:21.077Z,1.84
2022-12-03T19:24:48.116Z,1.67
2022-12-03T19:27:16.078Z,1.39
2022-12-03T19:29:42.895Z,1.34
2022-12-03T19:32:09.711Z,1.28
2022-12-03T19:34:37.485Z,1.17
2022-12-03T19:37:04.277Z,1.10
2022-12-03T19:39:31.324Z,1.01
2022-12-03T19:41:58.600Z,0.98
2022-12-03T19:44:25.499Z,0.93
2022-12-03T19:46:52.355Z,0.85
2022-12-03T19:49:20.809Z,0.87
2022-12-03T19:51:47.899Z,0.73
2022-12-03T19:54:15.548Z,0.71
2022-12-03T19:56:42.579Z,0.77
2022-12-03T19:59:13.757Z,0.79
2022-12-03T20:01:42.513Z,0.85
2022-12-03T20:04:11.504Z,0.97
2022-12-03T20:06:38.979Z,1.04
2022-12-03T20:09:11.554Z,1.07
2022-12-03T20:11:40.300Z,1.14
2022-12-03T20:14:10.194Z,1.20
2022-12-03T20:16:37.040Z,1.21
2022-12-03T20:19:06.524Z,1.18
2022-12-03T20:21:36.389Z,1.15
2022-12-03T20:24:04.148Z,1.12
2022-12-03T20:26:32.162Z,1.05
2022-12-03T20:28:59.893Z,1.01
2022-12-03T20:31:29.000Z,1.02
2022-12-03T20:33:58.629Z,1.01
2022-12-03T20:36:26.591Z,1.04
2022-12-03T20:38:54.962Z,1.06
2022-12-03T20:41:22.304Z,1.04
2022-12-03T20:43:51.208Z,1.11
2022-12-03T20:46:28.623Z,1.14
2022-12-03T20:48:56.535Z,1.16
2022-12-03T20:51:25.773Z,1.17
2022-12-03T20:53:52.907Z,1.06
2022-12-03T20:56:35.493Z,0.97
2022-12-03T20:59:07.167Z,1.03
2022-12-03T21:01:35.374Z,0.97
2022-12-03T21:04:04.087Z,0.88
2022-12-03T21:06:31.479Z,0.88
2022-12-03T21:08:58.744Z,0.83
2022-12-03T21:11:29.110Z,0.78
2022-12-03T21:13:57.018Z,0.74
2022-12-03T21:16:52.521Z,0.79
2022-12-03T21:19:19.999Z,0.82
2022-12-03T21:21:46.842Z,0.78
2022-12-03T21:24:14.055Z,0.58
2022-12-03T21:26:41.014Z,0.48
2022-12-03T21:29:08.144Z,0.45
2022-12-03T21:31:36.782Z,0.51
2022-12-03T21:34:04.525Z,0.51
2022-12-03T21:36:31.825Z,0.34
2022-12-03T21:38:58.643Z,0.32
2022-12-03T21:41:25.767Z,0.20
2022-12-03T21:43:52.735Z,0.16
2022-12-03T21:47:11.453Z,0.12
2022-12-03T21:49:07.042Z,0.13
2022-12-03T21:51:34.008Z,0.21
2022-12-03T21:54:00.791Z,0.30
2022-12-03T21:56:30.228Z,0.34
2022-12-03T21:58:57.017Z,0.40
2022-12-03T22:01:24.135Z,0.30
2022-12-03T22:03:51.033Z,0.14
2022-12-03T22:06:18.694Z,0.08
2022-12-03T22:08:45.686Z,0.11
2022-12-03T22:11:19.407Z,0.13
2022-12-03T22:13:46.645Z,0.15
2022-12-03T22:16:16.970Z,0.12
2022-12-03T22:18:44.451Z,0.06
2022-12-03T22:21:14.476Z,0.08
2022-12-03T22:23:41.344Z,0.13
2022-12-03T22:26:11.512Z,0.25
2022-12-03T22:28:42.539Z,0.31
2022-12-03T22:31:09.819Z,0.20
2022-12-03T22:33:37.794Z,0.11
2022-12-03T22:36:18.273Z,0.14
2022-12-03T22:38:47.747Z,0.19
2022-12-03T22:41:15.430Z,0.08
2022-12-03T22:43:42.375Z,-0.03
2022-12-03T22:46:11.677Z,-0.05
2022-12-03T22:48:39.155Z,-0.07
2022-12-03T22:51:17.941Z,0.02
2022-12-03T22:53:44.769Z,0.08
2022-12-03T22:56:11.610Z,0.13
2022-12-03T22:58:39.823Z,0.14
2022-12-03T23:01:07.370Z,0.16
2022-12-03T23:03:34.349Z,0.21
2022-12-03T23:06:07.721Z,0.17
2022-12-03T23:08:34.487Z,0.15
2022-12-03T23:11:01.240Z,0.17
2022-12-03T23:13:28.166Z,0.12
2022-12-03T23:15:54.913Z,0.02
2022-12-03T23:18:21.831Z,0.04
2022-12-03T23:20:52.365Z,0.09
2022-12-03T23:23:21.395Z,0.11
2022-12-03T23:26:06.683Z,0.19
2022-12-03T23:28:35.725Z,0.36
2022-12-03T23:31:03.821Z,0.39
2022-12-03T23:33:36.697Z,0.45
2022-12-03T23:36:06.461Z,0.45
2022-12-03T23:38:33.326Z,0.30
2022-12-03T23:41:05.412Z,0.30
2022-12-03T23:43:32.408Z,0.24
2022-12-03T23:46:08.581Z,0.18
2022-12-03T23:48:35.502Z,0.23
2022-12-03T23:51:11.584Z,0.27
2022-12-03T23:53:39.549Z,0.16
2022-12-03T23:56:11.114Z,0.18
2022-12-03T23:58:38.220Z,0.21
